Anafi, Greece
Current Conditions -  °F | °C
As of 8:20 PM on Friday 19 Dec 2014 (Local Time) from LGSR Reporting Station
Scattered Clouds Scattered Clouds  
Wind Chill: 59°   Ceiling: Unl
Heat Index: 59°   Visibility: 6mi
Dew Point: 52°   Wind: 9mph
Humidity: 77%   Direction: 340°NNW
Pressure: 30.15"   Gusts: NA
Location:  36.35°N, 25.77°E
Report Text: LGSR 191720Z 34008KT 9999 SCT025 15/11 Q1021
Loading
Personal Weather Stations






























Interactive Weather Map New forecast layout! Learn more

10-Day Weather Forecast

Advertisements
Track Severe Weather on mobile